createdAt,value
2023-04-10T00:00:36.337Z,65.40
2023-04-10T00:03:04.004Z,65.50
2023-04-10T00:05:31.471Z,65.60
2023-04-10T00:07:58.359Z,65.70
2023-04-10T00:10:26.467Z,65.80
2023-04-10T00:12:54.035Z,65.90
2023-04-10T00:15:21.064Z,66.00
2023-04-10T00:17:47.988Z,66.00
2023-04-10T00:20:14.976Z,66.00
2023-04-10T00:22:42.891Z,66.00
2023-04-10T00:25:09.984Z,65.90
2023-04-10T00:27:36.835Z,65.90
2023-04-10T00:30:03.992Z,65.90
2023-04-10T00:32:30.916Z,65.90
2023-04-10T00:34:58.011Z,65.90
2023-04-10T00:37:25.031Z,65.80
2023-04-10T00:39:52.072Z,65.70
2023-04-10T00:42:18.992Z,65.70
2023-04-10T00:44:46.078Z,65.80
2023-04-10T00:47:14.261Z,65.80
2023-04-10T00:49:42.119Z,65.90
2023-04-10T00:52:09.877Z,65.90
2023-04-10T00:54:37.314Z,65.90
2023-04-10T00:57:07.592Z,66.00
2023-04-10T00:59:36.098Z,66.00
2023-04-10T01:02:04.402Z,66.10
2023-04-10T01:04:33.265Z,66.10
2023-04-10T01:07:50.675Z,66.10
2023-04-10T01:10:36.420Z,65.20
2023-04-10T01:13:30.467Z,66.10
2023-04-10T01:16:18.564Z,65.60
2023-04-10T01:18:57.124Z,65.50
2023-04-10T01:21:25.058Z,65.90
2023-04-10T01:24:22.179Z,66.00
2023-04-10T01:27:46.784Z,65.60
2023-04-10T01:30:21.076Z,65.20
2023-04-10T01:32:51.062Z,65.90
2023-04-10T01:35:19.696Z,66.00
2023-04-10T01:37:49.760Z,65.90
2023-04-10T01:40:20.085Z,66.00
2023-04-10T01:42:56.212Z,66.00
2023-04-10T01:45:28.504Z,65.90
2023-04-10T01:47:59.402Z,66.00
2023-04-10T01:50:28.627Z,65.90
2023-04-10T01:52:58.017Z,66.10
2023-04-10T01:55:27.245Z,65.90
2023-04-10T01:57:55.084Z,65.90
2023-04-10T02:00:22.807Z,65.90
2023-04-10T02:02:51.001Z,65.90
2023-04-10T02:05:18.593Z,66.40
2023-04-10T02:08:20.947Z,65.90
2023-04-10T02:11:37.851Z,65.30
2023-04-10T02:14:10.797Z,65.50
2023-04-10T02:16:39.802Z,66.00
2023-04-10T02:19:11.075Z,66.00
2023-04-10T02:21:39.982Z,66.10
2023-04-10T02:24:07.334Z,66.10
2023-04-10T02:26:51.727Z,66.20
2023-04-10T02:29:19.523Z,65.60
2023-04-10T02:31:49.030Z,66.20
2023-04-10T02:34:16.065Z,66.40
2023-04-10T02:36:42.862Z,66.50
2023-04-10T02:39:09.718Z,66.50
2023-04-10T02:41:36.540Z,66.60
2023-04-10T02:44:03.569Z,66.60
2023-04-10T02:46:30.632Z,66.60
2023-04-10T02:48:57.631Z,66.60
2023-04-10T02:51:24.510Z,66.60
2023-04-10T02:53:53.313Z,66.60
2023-04-10T02:56:20.777Z,66.70
2023-04-10T02:58:47.705Z,66.60
2023-04-10T03:01:14.621Z,66.50
2023-04-10T03:03:41.587Z,66.40
2023-04-10T03:06:09.400Z,66.50
2023-04-10T03:08:36.392Z,66.50
2023-04-10T03:11:03.242Z,66.50
2023-04-10T03:13:30.098Z,66.60
2023-04-10T03:15:56.968Z,66.60
2023-04-10T03:18:24.025Z,66.60
2023-04-10T03:20:50.941Z,66.60
2023-04-10T03:23:17.875Z,66.70
2023-04-10T03:25:44.801Z,66.70
2023-04-10T03:28:11.669Z,66.80
2023-04-10T03:30:38.573Z,66.80
2023-04-10T03:33:05.479Z,66.80
2023-04-10T03:35:32.461Z,66.90
2023-04-10T03:37:59.458Z,66.90
2023-04-10T03:40:26.278Z,67.00
2023-04-10T03:42:53.092Z,66.90
2023-04-10T03:45:20.169Z,66.80
2023-04-10T03:47:47.060Z,66.80
2023-04-10T03:50:13.943Z,66.80
2023-04-10T03:52:40.798Z,66.90
2023-04-10T03:55:08.185Z,66.90
2023-04-10T03:57:34.948Z,67.00
2023-04-10T04:00:02.846Z,67.00
2023-04-10T04:02:29.854Z,67.00
2023-04-10T04:04:57.297Z,67.00
2023-04-10T04:07:24.130Z,67.00
2023-04-10T04:09:51.318Z,67.10
2023-04-10T04:12:18.142Z,67.10
2023-04-10T04:14:45.277Z,67.10
2023-04-10T04:17:12.513Z,67.20
2023-04-10T04:19:39.356Z,67.20
2023-04-10T04:22:06.245Z,67.20
2023-04-10T04:24:33.267Z,67.20
2023-04-10T04:27:01.180Z,67.20
2023-04-10T04:29:28.208Z,67.30
2023-04-10T04:31:55.106Z,67.40
2023-04-10T04:34:21.976Z,67.60
2023-04-10T04:36:48.876Z,67.60
2023-04-10T04:39:16.013Z,67.60
2023-04-10T04:41:42.962Z,67.60
2023-04-10T04:44:10.234Z,67.70
2023-04-10T04:46:37.000Z,67.80
2023-04-10T04:49:03.815Z,68.00
2023-04-10T04:51:30.889Z,68.20
2023-04-10T04:53:57.665Z,68.20
2023-04-10T04:56:24.452Z,68.30
2023-04-10T04:58:51.301Z,68.30
2023-04-10T05:01:18.174Z,68.50
2023-04-10T05:03:45.427Z,68.50
2023-04-10T05:06:12.380Z,68.50
2023-04-10T05:08:39.267Z,68.60
2023-04-10T05:11:06.804Z,68.60
2023-04-10T05:13:33.659Z,68.80
2023-04-10T05:16:00.527Z,68.90
2023-04-10T05:18:28.111Z,68.90
2023-04-10T05:20:54.987Z,69.00
2023-04-10T05:23:21.848Z,69.00
2023-04-10T05:25:49.102Z,69.10
2023-04-10T05:28:16.037Z,69.20
2023-04-10T05:30:42.911Z,69.30
2023-04-10T05:33:09.758Z,69.30
2023-04-10T05:35:36.710Z,69.30
2023-04-10T05:38:03.622Z,69.30
2023-04-10T05:40:30.680Z,69.40
2023-04-10T05:42:57.706Z,69.40
2023-04-10T05:45:24.673Z,69.50
2023-04-10T05:47:51.559Z,69.40
2023-04-10T05:50:18.473Z,69.30
2023-04-10T05:52:46.653Z,69.40
2023-04-10T05:55:13.597Z,69.50
2023-04-10T05:57:40.492Z,69.60
2023-04-10T06:00:08.293Z,69.60
2023-04-10T06:02:35.830Z,69.50
2023-04-10T06:05:02.962Z,69.60
2023-04-10T06:07:29.880Z,69.60
2023-04-10T06:09:56.684Z,69.60
2023-04-10T06:12:23.544Z,69.60
2023-04-10T06:14:50.605Z,69.60
2023-04-10T06:17:17.454Z,69.60
2023-04-10T06:19:44.390Z,69.60
2023-04-10T06:22:11.232Z,69.70
2023-04-10T06:24:38.622Z,69.70
2023-04-10T06:27:05.594Z,69.70
2023-04-10T06:29:32.481Z,69.60
2023-04-10T06:31:59.361Z,69.60
2023-04-10T06:34:26.454Z,69.50
2023-04-10T06:36:53.233Z,69.60
2023-04-10T06:39:20.041Z,69.60
2023-04-10T06:41:46.892Z,69.60
2023-04-10T06:44:13.767Z,69.70
2023-04-10T06:46:40.860Z,69.80
2023-04-10T06:49:07.753Z,69.70
2023-04-10T06:51:34.712Z,69.90
2023-04-10T06:54:01.581Z,70.00
2023-04-10T06:56:28.674Z,69.90
2023-04-10T06:58:56.310Z,69.80
2023-04-10T07:01:23.606Z,69.80
2023-04-10T07:03:50.876Z,69.90
2023-04-10T07:06:17.839Z,69.90
2023-04-10T07:08:44.704Z,69.80
2023-04-10T07:11:11.527Z,69.30
2023-04-10T07:13:40.014Z,69.00
2023-04-10T07:16:11.074Z,68.90
2023-04-10T07:18:39.024Z,68.70
2023-04-10T07:21:14.288Z,68.70
2023-04-10T07:23:41.197Z,67.90
2023-04-10T07:26:08.045Z,68.70
2023-04-10T07:28:34.982Z,68.70
2023-04-10T07:31:02.077Z,68.70
2023-04-10T07:33:28.977Z,68.40
2023-04-10T07:35:55.917Z,68.10
2023-04-10T07:38:24.207Z,67.50
2023-04-10T07:40:57.492Z,67.30
2023-04-10T07:43:24.786Z,65.80
2023-04-10T07:45:52.872Z,66.90
2023-04-10T07:48:19.781Z,66.70
2023-04-10T07:50:46.678Z,66.50
2023-04-10T07:53:13.619Z,66.20
2023-04-10T07:55:42.764Z,66.20
2023-04-10T07:58:10.590Z,66.20
2023-04-10T08:00:37.749Z,66.30
2023-04-10T08:03:06.379Z,66.30
2023-04-10T08:05:34.084Z,65.90
2023-04-10T08:08:00.881Z,66.20
2023-04-10T08:10:27.806Z,66.30
2023-04-10T08:12:54.642Z,65.60
2023-04-10T08:15:21.583Z,64.80
2023-04-10T08:17:48.476Z,64.00
2023-04-10T08:20:16.008Z,62.50
2023-04-10T08:22:42.849Z,60.70
2023-04-10T08:25:10.246Z,59.30
2023-04-10T08:27:37.883Z,58.40
2023-04-10T08:30:05.854Z,56.80
2023-04-10T08:32:32.905Z,55.90
2023-04-10T08:34:59.859Z,54.70
2023-04-10T08:37:26.934Z,54.00
2023-04-10T08:39:54.021Z,53.30
2023-04-10T08:42:21.216Z,51.80
2023-04-10T08:44:50.331Z,51.00
2023-04-10T08:47:21.575Z,49.40
2023-04-10T08:49:56.226Z,47.60
2023-04-10T08:52:26.285Z,46.10
2023-04-10T08:54:58.578Z,46.30
2023-04-10T08:57:26.905Z,44.20
2023-04-10T08:59:53.748Z,44.70
2023-04-10T09:02:21.867Z,45.80
2023-04-10T09:04:55.330Z,47.20
2023-04-10T09:07:23.429Z,46.20
2023-04-10T09:09:50.355Z,47.80
2023-04-10T09:12:17.330Z,47.60
2023-04-10T09:14:44.270Z,47.50
2023-04-10T09:17:20.325Z,46.00
2023-04-10T09:19:53.813Z,45.40
2023-04-10T09:22:32.270Z,46.10
2023-04-10T09:25:01.019Z,42.50
2023-04-10T09:27:35.543Z,45.70
2023-04-10T09:30:04.449Z,42.90
2023-04-10T09:32:41.695Z,44.80
2023-04-10T09:35:14.961Z,41.60
2023-04-10T09:37:45.672Z,43.80
2023-04-10T09:40:25.350Z,44.00
2023-04-10T09:42:53.920Z,40.50
2023-04-10T09:45:22.503Z,43.20
2023-04-10T09:48:10.452Z,42.60
2023-04-10T09:50:40.926Z,41.30
2023-04-10T09:53:20.488Z,42.30
2023-04-10T09:55:49.383Z,39.30
2023-04-10T09:58:17.356Z,40.70
2023-04-10T10:00:49.331Z,40.60
2023-04-10T10:03:21.130Z,37.80
2023-04-10T10:05:52.014Z,39.80
2023-04-10T10:08:19.109Z,37.90
2023-04-10T10:10:53.797Z,39.90
2023-04-10T10:13:36.108Z,36.70
2023-04-10T10:16:27.734Z,36.50
2023-04-10T10:19:17.840Z,39.80
2023-04-10T10:21:46.138Z,40.00
2023-04-10T10:24:14.914Z,39.40
2023-04-10T10:26:44.394Z,37.90
2023-04-10T10:29:13.396Z,37.30
2023-04-10T10:31:40.665Z,37.70
2023-04-10T10:34:09.688Z,37.00
2023-04-10T10:36:38.174Z,37.20
2023-04-10T10:39:23.068Z,36.80
2023-04-10T10:42:32.999Z,34.70
2023-04-10T10:45:19.498Z,34.80
2023-04-10T10:47:53.462Z,34.30
2023-04-10T10:50:24.259Z,36.40
2023-04-10T10:52:53.978Z,36.50
2023-04-10T10:55:35.014Z,36.40
2023-04-10T10:58:11.237Z,35.10
2023-04-10T11:00:54.973Z,36.30
2023-04-10T11:03:22.592Z,35.30
2023-04-10T11:05:55.297Z,38.10
2023-04-10T11:08:36.856Z,38.20
2023-04-10T11:11:09.698Z,36.00
2023-04-10T11:13:40.349Z,39.30
2023-04-10T11:16:12.451Z,38.90
2023-04-10T11:18:45.227Z,38.30
2023-04-10T11:21:23.262Z,37.50
2023-04-10T11:23:52.852Z,38.50
2023-04-10T11:26:36.812Z,39.10
2023-04-10T11:29:27.924Z,37.20
2023-04-10T11:32:03.248Z,40.10
2023-04-10T11:34:31.154Z,39.50
2023-04-10T11:36:58.029Z,40.60
2023-04-10T11:39:27.766Z,40.40
2023-04-10T11:41:57.952Z,38.60
2023-04-10T11:44:42.730Z,39.10
2023-04-10T11:47:13.200Z,38.80
2023-04-10T11:49:40.084Z,38.40
2023-04-10T11:52:07.121Z,39.80
2023-04-10T11:54:33.994Z,40.50
2023-04-10T11:57:07.112Z,40.90
2023-04-10T11:59:34.984Z,41.20
2023-04-10T12:02:10.588Z,41.30
2023-04-10T12:04:38.094Z,39.50
2023-04-10T12:07:05.437Z,41.50
2023-04-10T12:09:32.423Z,41.60
2023-04-10T12:12:08.808Z,41.40
2023-04-10T12:14:38.246Z,39.10
2023-04-10T12:17:07.609Z,41.40
2023-04-10T12:19:35.987Z,41.80
2023-04-10T12:22:03.305Z,41.40
2023-04-10T12:24:50.688Z,41.20
2023-04-10T12:27:20.298Z,38.90
2023-04-10T12:29:50.037Z,41.80
2023-04-10T12:32:17.503Z,42.00
2023-04-10T12:34:59.053Z,42.40
2023-04-10T12:37:52.584Z,41.10
2023-04-10T12:40:20.683Z,42.30
2023-04-10T12:42:47.668Z,42.60
2023-04-10T12:45:15.243Z,42.60
2023-04-10T12:47:48.640Z,42.50
2023-04-10T12:50:18.366Z,41.50
2023-04-10T12:53:01.025Z,42.90
2023-04-10T12:55:28.904Z,42.60
2023-04-10T12:57:56.819Z,42.50
2023-04-10T13:00:25.808Z,42.50
2023-04-10T13:02:53.175Z,42.30
2023-04-10T13:05:21.621Z,41.90
2023-04-10T13:07:52.731Z,41.90
2023-04-10T13:10:20.183Z,42.20
2023-04-10T13:12:47.394Z,42.70
2023-04-10T13:15:14.412Z,42.50
2023-04-10T13:17:41.839Z,42.70
2023-04-10T13:20:10.948Z,43.20
2023-04-10T13:22:37.897Z,43.20
2023-04-10T13:25:05.721Z,43.30
2023-04-10T13:27:32.606Z,43.10
2023-04-10T13:29:59.544Z,43.40
2023-04-10T13:32:26.434Z,43.40
2023-04-10T13:34:54.789Z,43.30
2023-04-10T13:37:21.605Z,42.10
2023-04-10T13:39:48.537Z,41.50
2023-04-10T13:42:15.489Z,41.90
2023-04-10T13:44:42.337Z,42.50
2023-04-10T13:47:09.419Z,42.50
2023-04-10T13:49:36.296Z,42.50
2023-04-10T13:52:03.097Z,43.10
2023-04-10T13:54:29.922Z,43.10
2023-04-10T13:56:57.620Z,42.80
2023-04-10T13:59:24.768Z,41.90
2023-04-10T14:01:52.692Z,40.80
2023-04-10T14:04:19.975Z,40.40
2023-04-10T14:06:46.940Z,39.40
2023-04-10T14:09:13.829Z,38.60
2023-04-10T14:11:40.770Z,38.20
2023-04-10T14:14:12.446Z,37.90
2023-04-10T14:16:39.488Z,37.20
2023-04-10T14:19:06.582Z,39.60
2023-04-10T14:21:33.450Z,39.30
2023-04-10T14:24:00.234Z,39.10
2023-04-10T14:26:27.325Z,38.70
2023-04-10T14:28:54.373Z,37.50
2023-04-10T14:31:21.561Z,37.00
2023-04-10T14:33:49.334Z,35.50
2023-04-10T14:36:16.253Z,35.80
2023-04-10T14:38:43.230Z,35.50
2023-04-10T14:41:10.176Z,35.40
2023-04-10T14:43:38.045Z,34.60
2023-04-10T14:46:06.706Z,33.90
2023-04-10T14:48:33.974Z,32.90
2023-04-10T14:51:01.382Z,32.50
2023-04-10T14:53:28.282Z,31.30
2023-04-10T14:55:55.161Z,31.50
2023-04-10T14:58:21.983Z,32.00
2023-04-10T15:00:50.659Z,32.50
2023-04-10T15:03:17.962Z,32.40
2023-04-10T15:05:44.927Z,32.10
2023-04-10T15:08:11.721Z,31.80
2023-04-10T15:10:38.602Z,31.80
2023-04-10T15:13:05.982Z,31.30
2023-04-10T15:15:32.781Z,31.10
2023-04-10T15:17:59.700Z,30.80
2023-04-10T15:20:26.541Z,31.00
2023-04-10T15:22:53.386Z,31.20
2023-04-10T15:25:20.416Z,31.00
2023-04-10T15:27:47.212Z,30.70
2023-04-10T15:30:14.183Z,30.50
2023-04-10T15:32:41.069Z,30.30
2023-04-10T15:35:08.515Z,30.20
2023-04-10T15:37:36.698Z,30.20
2023-04-10T15:40:07.473Z,30.00
2023-04-10T15:42:36.289Z,28.70
2023-04-10T15:45:03.848Z,29.60
2023-04-10T15:47:30.815Z,29.60
2023-04-10T15:49:57.816Z,29.20
2023-04-10T15:52:24.701Z,29.30
2023-04-10T15:54:52.667Z,28.40
2023-04-10T15:57:19.503Z,28.00
2023-04-10T15:59:46.321Z,28.00
2023-04-10T16:02:13.369Z,28.10
2023-04-10T16:04:40.674Z,28.30
2023-04-10T16:07:07.571Z,28.50
2023-04-10T16:09:34.364Z,28.60
2023-04-10T16:12:02.045Z,28.70
2023-04-10T16:14:28.981Z,28.60
2023-04-10T16:16:58.134Z,28.60
2023-04-10T16:19:24.982Z,28.10
2023-04-10T16:21:51.918Z,27.90
2023-04-10T16:24:18.773Z,27.80
2023-04-10T16:26:47.627Z,27.80
2023-04-10T16:29:16.040Z,27.80
2023-04-10T16:31:42.923Z,27.90
2023-04-10T16:34:09.753Z,28.10
2023-04-10T16:36:37.515Z,28.40
2023-04-10T16:39:04.429Z,28.70
2023-04-10T16:41:31.289Z,29.00
2023-04-10T16:43:58.131Z,29.40
2023-04-10T16:46:25.147Z,30.00
2023-04-10T16:48:52.649Z,30.00
2023-04-10T16:51:19.630Z,30.20
2023-04-10T16:53:46.538Z,30.60
2023-04-10T16:56:13.517Z,30.90
2023-04-10T16:58:42.045Z,31.10
2023-04-10T17:01:26.610Z,31.40
2023-04-10T17:03:54.911Z,31.20
2023-04-10T17:06:22.177Z,32.00
2023-04-10T17:08:49.006Z,32.30
2023-04-10T17:11:16.186Z,32.50
2023-04-10T17:13:43.407Z,32.70
2023-04-10T17:16:10.684Z,32.90
2023-04-10T17:18:37.598Z,33.20
2023-04-10T17:21:04.983Z,33.40
2023-04-10T17:23:31.898Z,33.70
2023-04-10T17:25:58.806Z,33.90
2023-04-10T17:28:26.051Z,34.20
2023-04-10T17:30:52.941Z,34.40
2023-04-10T17:33:21.650Z,34.60
2023-04-10T17:35:51.425Z,34.80
2023-04-10T17:38:18.929Z,35.00
2023-04-10T17:40:45.949Z,35.20
2023-04-10T17:43:12.826Z,35.40
2023-04-10T17:45:40.148Z,35.70
2023-04-10T17:48:07.876Z,35.80
2023-04-10T17:50:35.737Z,36.00
2023-04-10T17:53:02.784Z,36.10
2023-04-10T17:55:29.733Z,36.20
2023-04-10T17:57:59.640Z,36.50
2023-04-10T18:00:26.655Z,36.60
2023-04-10T18:02:59.829Z,37.20
2023-04-10T18:05:38.113Z,36.90
2023-04-10T18:08:05.827Z,37.00
2023-04-10T18:10:32.638Z,37.20
2023-04-10T18:12:59.609Z,37.30
2023-04-10T18:15:27.890Z,37.40
2023-04-10T18:17:55.234Z,37.60
2023-04-10T18:20:22.459Z,37.70
2023-04-10T18:22:49.310Z,37.80
2023-04-10T18:25:17.097Z,37.90
2023-04-10T18:27:51.624Z,38.00
2023-04-10T18:30:22.553Z,38.10
2023-04-10T18:32:52.045Z,38.30
2023-04-10T18:35:19.116Z,38.40
2023-04-10T18:37:45.960Z,38.50
2023-04-10T18:40:16.204Z,38.70
2023-04-10T18:42:43.867Z,38.90
2023-04-10T18:45:12.970Z,39.00
2023-04-10T18:47:39.907Z,39.30
2023-04-10T18:50:10.162Z,39.40
2023-04-10T18:52:37.458Z,39.60
2023-04-10T18:55:04.629Z,39.60
2023-04-10T18:57:31.473Z,39.70
2023-04-10T18:59:59.463Z,39.80
2023-04-10T19:02:27.926Z,39.80
2023-04-10T19:04:54.866Z,40.10
2023-04-10T19:07:21.733Z,40.20
2023-04-10T19:09:48.613Z,40.30
2023-04-10T19:12:15.657Z,40.40
2023-04-10T19:14:42.487Z,40.50
2023-04-10T19:17:09.351Z,40.70
2023-04-10T19:19:36.167Z,40.80
2023-04-10T19:22:03.111Z,40.90
2023-04-10T19:24:32.947Z,41.00
2023-04-10T19:27:00.745Z,41.40
2023-04-10T19:29:31.038Z,41.30
2023-04-10T19:31:57.941Z,41.30
2023-04-10T19:34:24.947Z,41.40
2023-04-10T19:36:51.757Z,41.40
2023-04-10T19:39:18.592Z,41.50
2023-04-10T19:41:45.591Z,41.70
2023-04-10T19:44:12.720Z,41.80
2023-04-10T19:46:39.852Z,41.90
2023-04-10T19:49:06.985Z,42.00
2023-04-10T19:51:33.865Z,42.20
2023-04-10T19:54:00.732Z,42.30
2023-04-10T19:56:28.623Z,42.50
2023-04-10T19:58:55.549Z,42.70
2023-04-10T20:01:24.254Z,42.90
2023-04-10T20:03:51.414Z,43.20
2023-04-10T20:06:18.467Z,43.30
2023-04-10T20:08:45.347Z,43.40
2023-04-10T20:11:12.218Z,43.50
2023-04-10T20:13:40.875Z,43.70
2023-04-10T20:16:08.757Z,43.70
2023-04-10T20:18:36.582Z,43.80
2023-04-10T20:21:04.621Z,43.90
2023-04-10T20:23:31.516Z,44.00
2023-04-10T20:25:58.432Z,44.10
2023-04-10T20:28:25.378Z,44.20
2023-04-10T20:30:52.190Z,44.30
2023-04-10T20:33:19.131Z,44.40
2023-04-10T20:35:46.049Z,44.50
2023-04-10T20:38:12.961Z,44.50
2023-04-10T20:40:39.833Z,44.60
2023-04-10T20:43:12.089Z,44.70
2023-04-10T20:45:40.426Z,44.80
2023-04-10T20:48:09.155Z,44.90
2023-04-10T20:50:37.086Z,45.10
2023-04-10T20:53:04.083Z,45.10
2023-04-10T20:55:31.154Z,45.10
2023-04-10T20:57:58.703Z,45.20
2023-04-10T21:00:25.814Z,45.30
2023-04-10T21:02:52.944Z,45.30
2023-04-10T21:05:19.911Z,45.40
2023-04-10T21:07:46.711Z,45.50
2023-04-10T21:10:13.595Z,45.60
2023-04-10T21:12:40.570Z,45.70
2023-04-10T21:15:08.531Z,45.80
2023-04-10T21:17:35.566Z,45.80
2023-04-10T21:20:02.621Z,45.90
2023-04-10T21:22:29.666Z,46.00
2023-04-10T21:24:56.799Z,46.00
2023-04-10T21:27:24.076Z,46.10
2023-04-10T21:29:50.937Z,46.20
2023-04-10T21:32:17.752Z,46.30
2023-04-10T21:34:44.670Z,46.90
2023-04-10T21:37:11.522Z,46.40
2023-04-10T21:39:43.296Z,46.40
2023-04-10T21:42:10.139Z,46.60
2023-04-10T21:44:36.966Z,46.50
2023-04-10T21:47:04.428Z,46.50
2023-04-10T21:49:31.263Z,46.60
2023-04-10T21:51:59.171Z,46.70
2023-04-10T21:54:26.110Z,46.80
2023-04-10T21:56:53.091Z,46.80
2023-04-10T21:59:19.923Z,46.90
2023-04-10T22:01:47.003Z,46.90
2023-04-10T22:04:14.239Z,46.90
2023-04-10T22:06:41.153Z,46.90
2023-04-10T22:09:07.962Z,46.90
2023-04-10T22:11:35.994Z,47.00
2023-04-10T22:14:14.980Z,47.20
2023-04-10T22:16:43.225Z,47.20
2023-04-10T22:19:10.186Z,47.10
2023-04-10T22:21:37.233Z,47.20
2023-04-10T22:24:04.260Z,47.30
2023-04-10T22:26:32.797Z,47.30
2023-04-10T22:28:59.670Z,47.50
2023-04-10T22:31:26.665Z,47.50
2023-04-10T22:33:53.548Z,47.60
2023-04-10T22:36:21.897Z,47.80
2023-04-10T22:38:48.737Z,47.90
2023-04-10T22:41:15.631Z,48.00
2023-04-10T22:43:42.441Z,48.00
2023-04-10T22:46:09.669Z,48.00
2023-04-10T22:48:36.595Z,48.10
2023-04-10T22:51:03.604Z,48.10
2023-04-10T22:53:30.525Z,48.30
2023-04-10T22:55:57.424Z,48.30
2023-04-10T22:58:24.290Z,48.30
2023-04-10T23:00:51.089Z,48.30
2023-04-10T23:03:17.966Z,48.40
2023-04-10T23:05:44.850Z,48.50
2023-04-10T23:08:11.695Z,48.50
2023-04-10T23:10:38.541Z,48.60
2023-04-10T23:13:05.374Z,48.60
2023-04-10T23:15:32.318Z,48.60
2023-04-10T23:17:59.236Z,48.60
2023-04-10T23:20:26.155Z,48.60
2023-04-10T23:22:56.280Z,48.60
2023-04-10T23:25:23.311Z,48.60
2023-04-10T23:27:50.366Z,48.50
2023-04-10T23:30:17.158Z,48.40
2023-04-10T23:32:43.952Z,48.40
2023-04-10T23:35:10.779Z,48.40
2023-04-10T23:37:37.761Z,48.40
2023-04-10T23:40:05.156Z,48.30
2023-04-10T23:42:31.984Z,48.20
2023-04-10T23:44:58.788Z,48.20
2023-04-10T23:47:25.732Z,48.10
2023-04-10T23:49:52.550Z,48.10
2023-04-10T23:52:19.489Z,48.00
2023-04-10T23:54:46.299Z,48.00
2023-04-10T23:57:13.160Z,48.10
2023-04-10T23:59:39.971Z,48.10
